Latest Weather Observations for Toowoomba

IDQ60901

Issued at 7:51 pm EST Monday 25 July 2016 (issued every 10 minutes, with the page automatically refreshed every 10 minutes)

About weather observations | Map of Brisbane area stations | Latest observations for Brisbane area | Other Formats
Station Details ID: 041529 Name: TOOWOOMBA AIRPORT Lat: -27.54 Lon: 151.91 Height: 640.9 m
Data from the previous 72 hours. | See also: Recent months at Toowoomba
Date/Time
EST
Temp
°C
App
Temp
°C
Dew
Point
°C
Rel
Hum
%
Delta-T
°C
Wind Press
QNH
hPa
Press
MSL
hPa
Rain since
9am
mm
Dir  Spd
km/h
Gust
km/h
Spd
kts
Gust
kts
25/07:30pm 11.2 5.9 1.7 52 4.2 WSW 19 24 10 13 1019.9 1019.5 0.0
25/07:00pm 11.5 6.6 2.0 52 4.2 WSW 17 22 9 12 1019.9 1019.5 0.0
25/06:30pm 11.9 7.0 1.8 50 4.5 WSW 17 22 9 12 1019.7 1019.3 0.0
25/06:00pm 11.7 6.7 1.6 50 4.4 WSW 17 20 9 11 1019.6 1019.2 0.0
25/05:30pm 12.9 7.6 1.9 47 4.9 WSW 19 24 10 13 1019.2 1018.7 0.0
25/05:00pm 13.7 8.1 1.4 43 5.5 WSW 20 26 11 14 1019.0 1018.5 0.0
25/04:30pm 14.8 8.6 -0.1 36 6.5 WSW 22 30 12 16 1018.8 1018.3 0.0
25/04:00pm 15.4 8.2 0.4 36 6.6 WSW 28 35 15 19 1018.6 1018.1 0.0
25/03:30pm 16.0 9.2 1.0 36 6.8 WSW 26 35 14 19 1018.3 1017.9 0.0
25/03:00pm 16.4 9.7 1.3 36 6.9 WSW 26 39 14 21 1018.2 1017.8 0.0
25/02:30pm 16.9 10.6 1.4 35 7.1 WSW 24 32 13 17 1018.1 1017.7 0.0
25/02:00pm 15.8 8.6 0.4 35 6.8 WSW 28 39 15 21 1018.4 1018.0 0.0
25/01:30pm 16.3 10.1 2.3 39 6.5 WSW 24 32 13 17 1018.7 1018.2 0.0
25/01:00pm 15.5 8.8 1.3 38 6.4 WSW 26 32 14 17 1018.9 1018.4 0.0
25/12:30pm 15.4 8.3 1.5 39 6.3 WSW 28 41 15 22 1019.3 1018.8 0.0
25/12:00pm 14.8 8.1 1.7 41 5.9 SW 26 37 14 20 1019.6 1019.2 0.0
25/11:30am 14.5 8.7 2.1 43 5.7 SW 22 35 12 19 1020.0 1019.6 0.0
25/11:00am 13.4 6.7 1.7 45 5.2 SW 26 35 14 19 1020.5 1020.0 0.0
25/10:30am 13.1 5.7 2.1 47 5.0 SW 30 37 16 20 1020.7 1020.2 0.0
25/10:00am 12.7 5.4 2.3 49 4.7 SW 30 39 16 21 1020.9 1020.5 0.0
25/09:30am 11.7 4.4 2.2 52 4.2 SW 30 39 16 21 1021.0 1020.6 0.0
25/09:00am 10.4 4.3 2.5 58 3.5 WSW 24 35 13 19 1020.9 1020.5 0.0
25/08:30am 9.2 3.9 3.2 66 2.7 WSW 20 24 11 13 1020.6 1020.1 0.0
25/08:00am 8.0 2.7 2.9 70 2.2 WSW 20 28 11 15 1020.4 1019.9 0.0
25/07:30am 6.3 1.0 2.0 74 1.8 WSW 19 24 10 13 1020.0 1019.6 0.0
25/07:00am 5.7 0.8 1.8 76 1.6 WSW 17 20 9 11 1019.7 1019.3 0.0
25/06:30am 6.1 0.8 1.8 74 1.8 WSW 19 26 10 14 1019.3 1018.8 0.0
25/06:00am 6.1 1.1 1.6 73 1.9 WSW 17 22 9 12 1019.0 1018.5 0.0
25/05:30am 6.7 1.7 1.6 70 2.1 WSW 17 22 9 12 1018.9 1018.4 0.0
25/05:00am 7.2 1.9 1.9 69 2.3 WSW 19 24 10 13 1018.8 1018.3 0.0
25/04:30am 7.2 2.3 1.9 69 2.3 WSW 17 20 9 11 1018.6 1018.1 0.0
25/04:00am 7.8 2.3 1.9 66 2.5 WSW 20 24 11 13 1018.4 1018.0 0.0
25/03:30am 8.4 3.1 1.8 63 2.8 WSW 19 24 10 13 1018.3 1017.9 0.0
25/03:00am 9.4 3.9 2.0 60 3.2 SW 20 26 11 14 1018.3 1017.9 0.0
25/02:30am 9.2 3.3 1.9 60 3.2 SW 22 28 12 15 1018.3 1017.9 0.0
25/02:00am 8.7 3.4 1.8 62 3.0 SW 19 26 10 14 1018.0 1017.5 0.0
25/01:30am 8.5 3.2 1.6 62 3.0 SW 19 24 10 13 1018.1 1017.7 0.0
25/01:00am 8.6 3.2 1.5 61 3.0 WSW 19 22 10 12 1018.2 1017.8 0.0
25/12:30am 8.9 3.9 1.6 60 3.1 WSW 17 20 9 11 1018.2 1017.8 0.0
25/12:00am 9.2 4.6 1.6 59 3.3 WSW 15 19 8 10 1018.3 1017.9 0.0
 
Date/Time
EST
Temp
°C
App
Temp
°C
Dew
Point
°C
Rel
Hum
%
Delta-T
°C
Wind Press
QNH
hPa
Press
MSL
hPa
Rain since
9am
mm
Dir  Spd
km/h
Gust
km/h
Spd
kts
Gust
kts
24/11:30pm 9.3 4.7 1.5 58 3.4 SW 15 19 8 10 1018.3 1017.9 0.0
24/11:00pm 9.5 5.3 1.4 57 3.5 WSW 13 15 7 8 1018.3 1017.9 0.0
24/10:30pm 10.3 6.4 1.4 54 3.9 WSW 11 15 6 8 1018.2 1017.8 0.0
24/10:00pm 10.3 6.9 1.7 55 3.7 WSW 9 13 5 7 1018.1 1017.7 0.0
24/09:30pm 10.4 6.9 1.2 53 4.0 W 9 13 5 7 1018.0 1017.5 0.0
24/09:00pm 11.3 6.7 1.3 50 4.4 SW 15 20 8 11 1017.9 1017.4 0.0
24/08:30pm 11.6 7.3 0.7 47 4.7 SW 13 17 7 9 1017.7 1017.2 0.0
24/08:00pm 12.3 7.5 0.4 44 5.1 SW 15 20 8 11 1017.4 1016.9 0.0
24/07:30pm 12.8 7.8 1.5 46 5.0 SW 17 20 9 11 1017.4 1016.9 0.0
24/07:00pm 13.9 9.1 2.5 46 5.2 WSW 17 20 9 11 1017.2 1016.7 0.0
24/06:30pm 14.3 10.7 2.9 46 5.3 WSW 11 15 6 8 1016.7 1016.3 0.0
24/06:00pm 14.1 10.5 2.7 46 5.2 W 11 15 6 8 1016.6 1016.1 0.0
24/05:30pm 14.8 10.8 2.7 44 5.6 W 13 15 7 8 1016.4 1015.9 0.0
24/05:00pm 16.2 11.3 2.2 39 6.5 WNW 17 22 9 12 1016.0 1015.5 0.0
24/04:30pm 17.1 12.2 1.9 36 7.1 WNW 17 24 9 13 1015.8 1015.3 0.0
24/04:00pm 17.5 11.9 1.5 34 7.4 W 20 28 11 15 1015.7 1015.2 0.0
24/03:30pm 17.5 11.9 1.1 33 7.5 WNW 20 26 11 14 1015.5 1015.0 0.0
24/03:00pm 17.7 12.1 1.2 33 7.6 WNW 20 28 11 15 1015.6 1015.1 0.0
24/02:30pm 18.3 12.9 1.3 32 7.9 WNW 19 28 10 15 1016.0 1015.5 0.0
24/02:00pm 17.5 12.5 1.1 33 7.5 WNW 17 24 9 13 1016.0 1015.5 0.0
24/01:30pm 17.1 12.1 1.1 34 7.3 W 17 22 9 12 1016.6 1016.1 0.0
24/01:00pm 16.2 11.0 -0.1 33 7.2 WNW 17 24 9 13 1017.2 1016.7 0.0
24/12:30pm 15.7 10.4 -0.5 33 7.1 WNW 17 24 9 13 1017.5 1017.0 0.0
24/12:00pm 15.6 10.6 -1.4 31 7.3 WNW 15 22 8 12 1018.1 1017.7 0.0
24/11:30am 15.9 11.7 -0.8 32 7.3 WNW 11 19 6 10 1018.4 1018.0 0.0
24/11:00am 14.5 11.0 -1.6 33 6.8 E 7 11 4 6 1018.4 1018.0 0.0
24/10:30am 13.6 10.0 -1.9 34 6.4 ENE 7 13 4 7 1018.6 1018.1 0.0
24/10:00am 12.6 9.2 -0.6 40 5.6 SE 7 11 4 6 1019.0 1018.5 0.0
24/09:30am 11.5 7.9 0.9 48 4.6 SSW 9 13 5 7 1019.2 1018.7 0.0
24/09:00am 10.9 7.1 1.7 53 4.0 SSW 11 15 6 8 1018.9 1018.4 0.0
24/08:30am 9.8 7.2 0.9 54 3.8 SW 4 7 2 4 1018.2 1017.8 0.0
24/08:00am 8.8 7.1 1.7 61 3.0 CALM 0 6 0 3 1018.2 1017.8 0.0
24/07:30am 6.9 3.5 1.6 69 2.2 WNW 9 11 5 6 1018.0 1017.5 0.0
24/07:00am 6.9 3.1 1.6 69 2.2 WNW 11 13 6 7 1017.6 1017.1 0.0
24/06:30am 6.8 3.0 1.7 70 2.2 W 11 15 6 8 1017.4 1016.9 0.0
24/06:00am 6.5 3.1 1.6 71 2.1 W 9 13 5 7 1017.1 1016.6 0.0
24/05:30am 7.2 2.9 1.3 66 2.5 WSW 13 19 7 10 1016.7 1016.3 0.0
24/05:00am 8.8 4.1 0.8 57 3.4 SW 15 20 8 11 1016.4 1015.9 0.0
24/04:30am 9.2 4.8 0.4 54 3.7 SSW 13 19 7 10 1016.2 1015.7 0.0
24/04:00am 9.0 4.3 1.0 57 3.4 SSW 15 20 8 11 1016.3 1015.8 0.0
24/03:30am 8.9 3.4 0.9 57 3.4 SSW 19 26 10 14 1016.3 1015.8 0.0
24/03:00am 9.1 3.4 0.8 56 3.5 SSW 20 30 11 16 1016.6 1016.1 0.0
24/02:30am 8.9 3.3 0.9 57 3.4 SSW 20 26 11 14 1016.2 1015.7 0.0
24/02:00am 8.4 2.9 0.9 59 3.2 SSW 19 26 10 14 1016.5 1016.0 0.0
24/01:30am 8.5 3.1 1.2 60 3.1 SW 19 24 10 13 1016.7 1016.3 0.0
24/01:00am 8.8 2.8 1.2 59 3.2 SW 22 30 12 16 1016.7 1016.3 0.0
24/12:30am 9.3 2.9 1.2 57 3.5 SW 24 33 13 18 1016.5 1016.0 0.0
24/12:00am 9.4 3.4 1.3 57 3.5 SW 22 28 12 15 1016.4 1015.9 0.0
 
Date/Time
EST
Temp
°C
App
Temp
°C
Dew
Point
°C
Rel
Hum
%
Delta-T
°C
Wind Press
QNH
hPa
Press
MSL
hPa
Rain since
9am
mm
Dir  Spd
km/h
Gust
km/h
Spd
kts
Gust
kts
23/11:30pm 9.5 3.3 1.9 59 3.3 SW 24 33 13 18 1016.2 1015.7 0.0
23/11:00pm 10.0 3.8 2.4 59 3.4 SW 24 37 13 20 1016.3 1015.8 0.0
23/10:30pm 10.6 4.5 2.7 58 3.5 SW 24 32 13 17 1016.2 1015.7 0.0
23/10:00pm 10.9 5.7 3.5 60 3.4 SW 20 30 11 16 1016.4 1015.9 0.0
23/09:30pm 11.6 5.7 3.9 59 3.6 SW 24 33 13 18 1016.3 1015.8 0.0
23/09:00pm 11.9 6.1 4.2 59 3.6 SW 24 33 13 18 1016.2 1015.7 0.0
23/08:30pm 12.5 6.8 4.7 59 3.7 SW 24 30 13 16 1016.0 1015.5 0.0
23/08:00pm 13.0 7.4 5.2 59 3.8 WSW 24 33 13 18 1015.9 1015.4 0.0
23/07:30pm 14.0 8.5 5.9 58 4.0 WSW 24 33 13 18 1015.8 1015.3 0.0
23/07:00pm 14.9 8.7 6.2 56 4.3 WSW 28 35 15 19 1015.0 1014.5 0.0
23/06:30pm 15.3 9.2 6.6 56 4.4 WSW 28 35 15 19 1015.0 1014.5 0.0
23/06:00pm 16.4 11.2 7.1 54 4.8 WSW 24 33 13 18 1014.2 1013.7 0.0
23/05:30pm 17.8 11.3 6.7 48 5.7 W 30 39 16 21 1013.8 1013.2 0.0
23/05:00pm 18.7 12.7 6.9 46 6.1 W 28 43 15 23 1013.6 1013.0 0.0
23/04:30pm 19.8 13.5 9.1 50 5.8 W 32 43 17 23 1013.3 1012.8 0.0
23/04:00pm 20.3 14.1 9.2 49 6.1 WSW 32 46 17 25 1013.0 1012.5 0.0
23/03:30pm 21.1 14.8 9.7 48 6.3 WSW 33 43 18 23 1012.8 1012.3 0.0
23/03:00pm 21.6 15.6 10.7 50 6.2 WSW 33 46 18 25 1012.7 1012.2 0.0
23/02:30pm 22.7 16.7 10.8 47 6.8 W 33 48 18 26 1012.5 1011.9 0.0
23/02:07pm 22.5 15.3 10.6 47 6.7 W 39 57 21 31 1012.4 1011.8 0.0
23/02:00pm 22.3 14.7 10.5 47 6.7 W 41 57 22 31 1012.3 1011.7 0.0
23/01:35pm 23.0 16.1 10.4 45 7.1 W 37 56 20 30 1012.4 1011.8 0.0
23/01:30pm 22.9 15.6 10.3 45 7.1 W 39 56 21 30 1012.4 1011.8 0.0
23/01:07pm 22.9 16.2 11.0 47 6.8 W 37 56 20 30 1012.6 1012.0 0.0
23/01:00pm 22.6 15.4 10.7 47 6.8 W 39 54 21 29 1012.7 1012.2 0.0
23/12:38pm 22.4 15.7 10.9 48 6.5 W 37 57 20 31 1012.8 1012.3 0.0
23/12:30pm 21.9 15.4 10.4 48 6.5 W 35 50 19 27 1012.8 1012.3 0.0
23/12:00pm 22.1 15.8 11.2 50 6.2 W 35 50 19 27 1013.3 1012.8 0.0
23/11:49am 22.3 16.3 12.0 52 6.0 W 35 54 19 29 1013.3 1012.8 0.0
23/11:30am 21.6 14.1 11.0 51 6.0 W 41 56 22 30 1013.6 1013.0 0.0
23/11:21am 21.5 14.9 11.5 53 5.7 W 37 56 20 30 1013.6 1013.0 0.0
23/11:00am 20.8 14.7 13.0 61 4.6 W 37 54 20 29 1013.4 1012.9 0.0
23/10:30am 21.4 16.2 13.3 60 4.8 W 33 48 18 26 1013.7 1013.1 0.0
23/10:00am 20.8 16.1 14.2 66 3.9 W 32 44 17 24 1014.0 1013.4 0.0
23/09:46am 19.9 14.1 13.8 68 3.6 W 37 56 20 30 1013.9 1013.3 0.0
23/09:30am 19.7 14.1 14.5 72 3.1 W 37 50 20 27 1014.0 1013.4 0.0
23/09:08am 19.8 14.7 14.8 73 3.0 WNW 35 54 19 29 1013.9 1013.3 0.0
23/09:00am 19.7 15.4 15.4 76 2.6 WNW 32 48 17 26 1013.9 1013.3 0.0
23/08:30am 18.2 14.6 15.3 83 1.7 WNW 28 48 15 26 1013.7 1013.1 0.0
23/08:00am 17.2 13.7 15.5 90 1.0 WNW 28 39 15 21 1013.9 1013.3 0.0
23/07:30am 16.5 13.0 15.5 94 0.6 WNW 28 39 15 21 1013.9 1013.3 0.0
23/07:00am 16.4 13.2 15.4 94 0.6 WNW 26 35 14 19 1013.8 1013.2 0.0
23/06:30am 16.3 13.9 15.5 95 0.5 WNW 22 32 12 17 1013.7 1013.1 0.0
23/06:00am 16.4 13.2 15.4 94 0.6 WNW 26 39 14 21 1013.4 1012.9 0.0
23/05:30am 16.3 13.9 15.5 95 0.5 WNW 22 32 12 17 1013.1 1012.6 0.0
23/05:00am 16.8 14.1 15.7 93 0.7 WNW 24 32 13 17 1013.0 1012.5 0.0
23/04:30am 16.7 13.6 15.6 93 0.7 WNW 26 41 14 22 1013.0 1012.5 0.0
23/04:00am 16.6 13.5 15.5 93 0.7 WNW 26 39 14 21 1012.9 1012.4 0.0
23/03:30am 16.9 13.3 15.2 90 1.0 WNW 28 35 15 19 1012.9 1012.4 0.0
23/03:00am 17.4 13.5 15.4 88 1.2 WNW 30 43 16 23 1013.2 1012.7 0.0
23/02:30am 17.3 14.1 15.3 88 1.2 WNW 26 35 14 19 1013.6 1013.0 0.0
23/02:00am 17.2 14.6 14.8 86 1.4 WNW 22 32 12 17 1013.7 1013.1 0.0
23/01:30am 17.0 14.8 14.8 87 1.3 WNW 20 28 11 15 1014.0 1013.4 0.0
23/01:00am 17.0 14.6 14.3 84 1.6 WNW 20 30 11 16 1014.2 1013.7 0.0
23/12:30am 17.8 14.6 14.3 80 2.1 NW 24 35 13 19 1014.2 1013.7 0.0
23/12:00am 17.3 15.0 14.2 82 1.8 NW 19 24 10 13 1014.3 1013.8 0.0
 
Date/Time
EST
Temp
°C
App
Temp
°C
Dew
Point
°C
Rel
Hum
%
Delta-T
°C
Wind Press
QNH
hPa
Press
MSL
hPa
Rain since
9am
mm
Dir  Spd
km/h
Gust
km/h
Spd
kts
Gust
kts
22/11:30pm 17.1 15.5 14.0 82 1.8 WNW 15 20 8 11 1014.6 1014.1 0.0
22/11:00pm 17.1 15.5 13.8 81 1.9 WNW 15 20 8 11 1015.0 1014.5 0.0
22/10:30pm 17.1 15.8 13.6 80 2.0 WNW 13 17 7 9 1015.3 1014.7 0.0
22/10:00pm 17.4 16.1 13.7 79 2.2 WNW 13 17 7 9 1015.4 1014.8 0.0
22/09:30pm 17.6 16.7 13.7 78 2.3 WNW 11 15 6 8 1015.4 1014.8 0.0
22/09:00pm 17.6 16.6 13.5 77 2.4 WNW 11 13 6 7 1015.5 1015.0 0.0
22/08:30pm 17.9 17.0 13.6 76 2.5 WNW 11 13 6 7 1015.5 1015.0 0.0
22/08:00pm 18.6 17.3 13.7 73 2.9 WNW 13 15 7 8 1015.5 1015.0 0.0

Latest Capital City Observations: Canberra | Sydney | Melbourne | Brisbane | Adelaide | Perth | Hobart | Darwin

Other Formats:

Comma delimited format used in spreadsheet applications
http://www.bom.gov.au/fwo/IDQ60901/IDQ60901.95551.axf

JavaScript Object Notation format (JSON) in row-major order
http://www.bom.gov.au/fwo/IDQ60901/IDQ60901.95551.json